createdAt,value
2023-01-06T00:01:44.593Z,4.30
2023-01-06T00:04:21.799Z,5.10
2023-01-06T00:06:58.773Z,3.40
2023-01-06T00:09:34.464Z,4.10
2023-01-06T00:12:08.670Z,4.00
2023-01-06T00:14:43.414Z,3.80
2023-01-06T00:17:15.907Z,5.30
2023-01-06T00:48:07.668Z,4.10
2023-01-06T01:29:39.443Z,4.10
2023-01-06T03:40:37.572Z,5.50
2023-01-06T03:43:36.202Z,5.10
2023-01-06T03:46:35.217Z,5.50
2023-01-06T03:49:23.978Z,5.90
2023-01-06T03:52:10.363Z,7.00
2023-01-06T03:54:55.092Z,3.50
2023-01-06T03:57:43.503Z,4.80
2023-01-06T04:00:43.215Z,5.10
2023-01-06T04:03:25.736Z,4.30
2023-01-06T04:06:02.554Z,6.30
2023-01-06T04:18:00.572Z,4.80
2023-01-06T04:20:33.605Z,4.70
2023-01-06T04:23:08.230Z,5.10
2023-01-06T04:25:44.851Z,3.30
2023-01-06T04:28:19.549Z,5.30
2023-01-06T04:30:53.687Z,4.50
2023-01-06T04:36:00.276Z,4.50
2023-01-06T04:38:32.522Z,3.80
2023-01-06T04:41:05.318Z,3.80
2023-01-06T04:43:38.047Z,5.20
2023-01-06T04:46:10.477Z,5.10
2023-01-06T04:48:44.458Z,4.00
2023-01-06T04:53:50.631Z,3.80
2023-01-06T04:56:26.715Z,4.60
2023-01-06T04:59:05.015Z,5.10
2023-01-06T05:01:42.052Z,5.90
2023-01-06T05:10:46.981Z,6.30
2023-01-06T05:13:19.552Z,4.20
2023-01-06T05:15:53.570Z,5.00
2023-01-06T05:21:32.710Z,6.10
2023-01-06T05:24:32.507Z,5.70
2023-01-06T05:27:06.693Z,7.40
2023-01-06T05:43:14.148Z,10.80
2023-01-06T05:45:53.041Z,9.90
2023-01-06T06:11:14.916Z,9.00
2023-01-06T06:14:01.110Z,8.40
2023-01-06T06:16:35.988Z,10.30
2023-01-06T06:19:12.518Z,9.10
2023-01-06T06:21:45.573Z,8.60
2023-01-06T06:24:18.081Z,4.70
2023-01-06T06:42:59.028Z,4.90
2023-01-06T06:51:55.585Z,6.60
2023-01-06T06:54:31.836Z,15.60
2023-01-06T07:03:41.572Z,11.30
2023-01-06T07:06:19.612Z,6.40
2023-01-06T07:08:53.070Z,5.40
2023-01-06T07:11:27.708Z,4.60
2023-01-06T07:17:31.604Z,3.60
2023-01-06T07:23:19.612Z,7.60
2023-01-06T07:51:10.545Z,21.80
2023-01-06T07:53:43.038Z,65.70
2023-01-06T08:19:13.224Z,10.80
2023-01-06T08:28:16.468Z,6.50
2023-01-06T09:17:01.804Z,9.10
2023-01-06T09:22:49.694Z,14.30
2023-01-06T09:25:29.239Z,18.70
2023-01-06T09:28:06.632Z,8.20
2023-01-06T09:30:55.709Z,11.40
2023-01-06T09:33:47.190Z,7.40
2023-01-06T09:36:23.756Z,8.60
2023-01-06T09:38:57.833Z,8.50
2023-01-06T09:41:37.244Z,8.00
2023-01-06T09:44:16.563Z,7.40
2023-01-06T09:46:52.164Z,8.90
2023-01-06T09:49:44.346Z,9.80
2023-01-06T09:52:33.469Z,10.70
2023-01-06T09:55:32.600Z,7.00
2023-01-06T09:58:23.489Z,10.80
2023-01-06T10:00:57.384Z,6.70
2023-01-06T10:03:29.451Z,22.10
2023-01-06T10:06:18.083Z,12.30
2023-01-06T10:09:07.362Z,5.30
2023-01-06T10:12:05.969Z,5.90
2023-01-06T10:15:04.388Z,6.80
2023-01-06T10:18:11.549Z,6.00
2023-01-06T10:20:54.449Z,5.70
2023-01-06T10:23:49.205Z,3.50
2023-01-06T10:26:29.403Z,5.20
2023-01-06T10:29:15.103Z,3.90
2023-01-06T10:31:49.209Z,5.30
2023-01-06T10:34:26.891Z,4.20
2023-01-06T10:37:34.412Z,4.70
2023-01-06T10:40:30.733Z,5.10
2023-01-06T10:43:13.921Z,7.10
2023-01-06T10:45:47.898Z,6.70
2023-01-06T10:48:26.822Z,6.20
2023-01-06T10:51:18.989Z,5.20
2023-01-06T10:53:51.444Z,7.80
2023-01-06T10:56:23.811Z,8.70
2023-01-06T10:59:12.398Z,6.30
2023-01-06T11:02:00.232Z,6.90
2023-01-06T11:04:34.334Z,8.40
2023-01-06T11:09:45.439Z,7.90
2023-01-06T11:12:27.496Z,9.90
2023-01-06T11:15:08.437Z,7.00
2023-01-06T11:17:41.154Z,9.10
2023-01-06T11:20:19.480Z,9.10
2023-01-06T11:32:21.050Z,9.20
2023-01-06T11:35:04.581Z,9.50
2023-01-06T11:37:42.258Z,11.00
2023-01-06T11:40:28.264Z,10.20
2023-01-06T11:43:04.187Z,12.80
2023-01-06T11:45:42.541Z,12.00
2023-01-06T11:48:19.987Z,9.60
2023-01-06T11:51:02.364Z,12.00
2023-01-06T11:53:35.011Z,10.30
2023-01-06T11:56:19.363Z,13.70
2023-01-06T11:59:13.147Z,15.20
2023-01-06T12:01:55.591Z,16.60
2023-01-06T12:04:53.315Z,13.10
2023-01-06T12:07:51.619Z,16.00
2023-01-06T12:10:30.821Z,14.60
2023-01-06T12:13:04.962Z,12.70
2023-01-06T12:15:42.491Z,14.20
2023-01-06T12:18:28.859Z,15.10
2023-01-06T12:21:03.230Z,15.40
2023-01-06T12:23:42.951Z,17.00
2023-01-06T12:26:23.798Z,15.20
2023-01-06T12:28:59.815Z,16.40
2023-01-06T12:31:46.015Z,15.70
2023-01-06T12:34:51.109Z,16.10
2023-01-06T12:37:43.321Z,17.00
2023-01-06T12:40:37.127Z,19.20
2023-01-06T12:43:16.203Z,17.70
2023-01-06T12:46:11.676Z,18.20
2023-01-06T12:49:06.744Z,15.00
2023-01-06T12:51:50.720Z,18.80
2023-01-06T12:54:27.065Z,19.70
2023-01-06T12:57:17.416Z,20.00
2023-01-06T13:00:28.297Z,16.80
2023-01-06T13:03:39.442Z,19.70
2023-01-06T13:06:26.332Z,18.00
2023-01-06T13:09:11.344Z,20.00
2023-01-06T13:12:06.231Z,18.70
2023-01-06T13:14:47.291Z,19.40
2023-01-06T13:17:26.818Z,19.60
2023-01-06T13:20:06.322Z,17.50
2023-01-06T13:23:01.487Z,22.00
2023-01-06T13:25:50.122Z,19.50
2023-01-06T13:28:44.611Z,24.00
2023-01-06T13:34:13.632Z,22.60
2023-01-06T13:36:58.270Z,32.00
2023-01-06T13:39:43.021Z,30.30
2023-01-06T13:42:26.330Z,31.10
2023-01-06T13:45:00.574Z,26.90
2023-01-06T13:47:35.798Z,29.40
2023-01-06T13:50:08.604Z,20.20
2023-01-06T13:52:47.699Z,23.40
2023-01-06T13:55:20.171Z,22.10
2023-01-06T13:57:52.957Z,20.80
2023-01-06T14:00:29.489Z,20.60
2023-01-06T14:03:15.541Z,21.50
2023-01-06T14:05:47.864Z,16.20
2023-01-06T14:08:22.272Z,17.90
2023-01-06T14:11:02.592Z,30.80
2023-01-06T14:13:41.673Z,31.00
2023-01-06T14:16:14.547Z,19.60
2023-01-06T14:19:04.171Z,19.60
2023-01-06T14:21:36.772Z,18.30
2023-01-06T14:24:36.144Z,19.60
2023-01-06T14:27:12.958Z,19.50
2023-01-06T14:29:47.768Z,16.20
2023-01-06T14:32:24.728Z,20.40
2023-01-06T14:35:15.007Z,18.40
2023-01-06T14:37:53.350Z,17.40
2023-01-06T14:40:50.164Z,19.00
2023-01-06T14:43:31.711Z,14.40
2023-01-06T14:46:16.228Z,20.80
2023-01-06T14:49:01.670Z,18.80
2023-01-06T14:51:37.490Z,20.80
2023-01-06T14:54:30.100Z,20.10
2023-01-06T14:57:03.987Z,18.10
2023-01-06T14:59:36.394Z,22.80
2023-01-06T15:02:17.621Z,21.70
2023-01-06T15:04:57.590Z,20.10
2023-01-06T15:07:30.747Z,19.20
2023-01-06T15:10:21.898Z,22.70
2023-01-06T15:12:57.230Z,17.10
2023-01-06T15:15:34.049Z,16.00
2023-01-06T15:18:08.352Z,17.80
2023-01-06T15:20:44.608Z,14.90
2023-01-06T15:23:20.225Z,17.20
2023-01-06T15:25:55.508Z,20.50
2023-01-06T15:28:35.680Z,19.20
2023-01-06T15:31:19.495Z,18.00
2023-01-06T15:33:54.486Z,19.30
2023-01-06T15:36:32.402Z,19.60
2023-01-06T15:39:06.567Z,16.80
2023-01-06T15:41:40.738Z,22.70
2023-01-06T15:44:32.306Z,17.10
2023-01-06T15:47:13.080Z,18.50
2023-01-06T15:49:49.826Z,20.20
2023-01-06T15:52:28.265Z,22.00
2023-01-06T15:55:05.366Z,20.70
2023-01-06T15:57:39.971Z,21.10
2023-01-06T16:00:24.649Z,18.10
2023-01-06T16:02:56.203Z,20.50
2023-01-06T16:05:36.529Z,23.20
2023-01-06T16:08:39.165Z,19.30
2023-01-06T16:11:41.776Z,23.60
2023-01-06T16:14:46.412Z,25.90
2023-01-06T16:17:23.585Z,26.30
2023-01-06T16:20:02.576Z,47.30
2023-01-06T16:22:36.835Z,34.50
2023-01-06T16:25:24.245Z,48.00
2023-01-06T16:28:00.224Z,33.90
2023-01-06T16:30:36.968Z,28.20
2023-01-06T16:33:35.941Z,24.20
2023-01-06T16:36:13.456Z,26.40
2023-01-06T16:38:42.191Z,48.50
2023-01-06T16:41:19.073Z,26.40
2023-01-06T16:43:53.867Z,27.10
2023-01-06T16:46:27.731Z,22.50
2023-01-06T16:51:39.413Z,23.70
2023-01-06T16:54:11.967Z,21.10
2023-01-06T16:56:42.928Z,19.90
2023-01-06T16:59:19.475Z,32.60
2023-01-06T17:01:48.692Z,20.60
2023-01-06T17:04:17.268Z,28.10
2023-01-06T17:06:46.176Z,21.90
2023-01-06T17:09:20.365Z,25.00
2023-01-06T17:11:53.108Z,17.00
2023-01-06T17:14:24.320Z,18.90
2023-01-06T17:16:58.276Z,15.80
2023-01-06T17:19:34.854Z,15.50
2023-01-06T17:22:09.171Z,22.80
2023-01-06T17:24:42.228Z,34.20
2023-01-06T17:27:21.167Z,19.00
2023-01-06T17:29:55.199Z,17.80
2023-01-06T17:32:35.427Z,19.80
2023-01-06T17:35:29.676Z,17.60
2023-01-06T17:38:08.326Z,18.70
2023-01-06T17:40:38.812Z,17.90
2023-01-06T17:43:22.508Z,19.20
2023-01-06T17:45:56.243Z,19.70
2023-01-06T17:48:28.635Z,21.00
2023-01-06T17:51:01.189Z,18.00
2023-01-06T17:53:55.854Z,21.60
2023-01-06T17:56:29.163Z,24.00
2023-01-06T17:59:13.259Z,19.40
2023-01-06T18:04:16.550Z,23.80
2023-01-06T18:06:53.108Z,22.40
2023-01-06T18:09:25.980Z,21.40
2023-01-06T18:12:04.351Z,24.50
2023-01-06T18:14:42.115Z,21.60
2023-01-06T18:17:16.057Z,23.90
2023-01-06T18:22:23.717Z,25.00
2023-01-06T18:25:01.941Z,24.80
2023-01-06T18:27:37.227Z,26.00
2023-01-06T18:30:29.277Z,25.30
2023-01-06T18:33:02.330Z,23.80
2023-01-06T18:35:31.071Z,24.50
2023-01-06T18:38:05.984Z,23.30
2023-01-06T18:40:39.869Z,23.90
2023-01-06T18:43:34.938Z,26.40
2023-01-06T18:46:18.223Z,25.40
2023-01-06T18:48:52.085Z,25.60
2023-01-06T18:51:23.245Z,26.30
2023-01-06T18:53:54.532Z,25.20
2023-01-06T18:56:25.565Z,23.50
2023-01-06T18:59:00.277Z,22.90
2023-01-06T19:01:44.315Z,20.80
2023-01-06T19:04:30.520Z,21.20
2023-01-06T19:07:19.275Z,20.60
2023-01-06T19:09:52.675Z,24.20
2023-01-06T19:12:31.067Z,20.40
2023-01-06T19:15:25.946Z,21.60
2023-01-06T19:17:59.254Z,22.90
2023-01-06T19:20:35.360Z,15.60
2023-01-06T19:23:24.161Z,21.50
2023-01-06T19:26:08.928Z,18.80
2023-01-06T19:28:45.174Z,21.70
2023-01-06T19:31:22.676Z,18.80
2023-01-06T19:34:01.838Z,19.20
2023-01-06T19:36:47.301Z,20.70
2023-01-06T19:39:27.016Z,20.00
2023-01-06T19:42:19.201Z,19.20
2023-01-06T19:44:56.526Z,19.40
2023-01-06T19:47:42.343Z,17.50
2023-01-06T19:50:33.680Z,20.80
2023-01-06T19:53:30.710Z,19.40
2023-01-06T19:56:15.580Z,16.10
2023-01-06T19:59:17.283Z,15.20
2023-01-06T20:02:42.100Z,15.00
2023-01-06T20:05:57.743Z,14.50
2023-01-06T20:08:29.966Z,14.00
2023-01-06T20:11:02.535Z,16.30
2023-01-06T20:13:34.530Z,13.70
2023-01-06T20:16:07.082Z,16.10
2023-01-06T20:18:40.359Z,11.70
2023-01-06T20:21:13.015Z,14.80
2023-01-06T20:23:46.101Z,14.10
2023-01-06T20:26:20.757Z,12.00
2023-01-06T20:28:53.526Z,13.00
2023-01-06T20:31:26.010Z,12.40
2023-01-06T20:34:00.237Z,12.20
2023-01-06T20:36:33.525Z,11.30
2023-01-06T20:39:09.838Z,12.20
2023-01-06T20:41:43.326Z,12.40
2023-01-06T20:44:17.497Z,12.80
2023-01-06T20:46:50.152Z,11.90
2023-01-06T20:49:22.545Z,10.40
2023-01-06T20:51:54.965Z,10.10
2023-01-06T20:54:28.141Z,11.50
2023-01-06T20:57:02.045Z,11.30
2023-01-06T20:59:34.462Z,10.80
2023-01-06T21:02:08.413Z,9.20
2023-01-06T21:04:41.640Z,9.50
2023-01-06T21:07:14.712Z,11.00
2023-01-06T21:09:47.317Z,9.30
2023-01-06T21:12:20.145Z,9.80
2023-01-06T21:15:11.601Z,11.00
2023-01-06T21:17:48.425Z,8.90
2023-01-06T21:20:20.919Z,11.80
2023-01-06T21:22:53.344Z,11.40
2023-01-06T21:25:29.298Z,13.20
2023-01-06T21:28:01.805Z,11.70
2023-01-06T21:30:39.984Z,11.10
2023-01-06T21:33:16.176Z,11.10
2023-01-06T21:36:09.946Z,10.70
2023-01-06T21:39:07.937Z,11.60
2023-01-06T21:42:00.569Z,12.20
2023-01-06T21:45:00.295Z,13.40
2023-01-06T21:47:46.614Z,11.10
2023-01-06T21:50:23.899Z,12.10
2023-01-06T21:53:02.114Z,13.00
2023-01-06T21:55:34.625Z,9.70
2023-01-06T21:58:12.618Z,10.30
2023-01-06T22:00:45.105Z,10.10
2023-01-06T22:03:17.578Z,10.50
2023-01-06T22:05:49.898Z,13.80
2023-01-06T22:08:22.398Z,16.20
2023-01-06T22:10:54.773Z,15.90
2023-01-06T22:13:27.285Z,16.20
2023-01-06T22:16:01.387Z,14.60
2023-01-06T22:18:35.297Z,14.90
2023-01-06T22:23:47.146Z,13.10
2023-01-06T22:26:19.467Z,13.50
2023-01-06T22:28:53.779Z,12.60
2023-01-06T22:31:26.029Z,12.70
2023-01-06T22:33:58.515Z,10.10
2023-01-06T22:36:30.957Z,12.70
2023-01-06T22:39:03.367Z,11.60
2023-01-06T22:41:35.800Z,12.20
2023-01-06T22:44:10.534Z,12.20
2023-01-06T22:46:42.822Z,11.90
2023-01-06T22:49:15.375Z,12.70
2023-01-06T22:51:47.878Z,12.90
2023-01-06T22:54:20.536Z,13.80
2023-01-06T22:56:54.656Z,12.50
2023-01-06T22:59:27.098Z,11.70
2023-01-06T23:01:55.569Z,12.40
2023-01-06T23:04:24.097Z,13.80
2023-01-06T23:06:53.029Z,14.60
2023-01-06T23:09:21.339Z,15.30
2023-01-06T23:11:49.777Z,11.10
2023-01-06T23:14:18.210Z,11.50
2023-01-06T23:16:46.739Z,12.00
2023-01-06T23:19:16.998Z,11.50
2023-01-06T23:21:45.355Z,11.90
2023-01-06T23:24:13.863Z,10.60
2023-01-06T23:26:45.488Z,11.90
2023-01-06T23:29:15.093Z,9.50
2023-01-06T23:31:45.742Z,12.10
2023-01-06T23:34:17.392Z,11.50
2023-01-06T23:36:47.473Z,11.60
2023-01-06T23:39:17.501Z,11.60
2023-01-06T23:41:46.009Z,14.80
2023-01-06T23:44:19.476Z,11.90
2023-01-06T23:46:48.397Z,10.20
2023-01-06T23:49:17.943Z,12.50
2023-01-06T23:51:46.384Z,12.40
2023-01-06T23:54:15.554Z,13.30
2023-01-06T23:56:44.138Z,12.50
2023-01-06T23:59:13.413Z,12.30
